sensor_id;sensor_type;location;lat;lon;timestamp;P1;durP1;ratioP1;P2;durP2;ratioP2
48423;SDS011;34232;42.502;26.014;2023-02-10T00:03:31;5.30;;;2.10;;
48423;SDS011;34232;42.502;26.014;2023-02-10T00:05:57;5.63;;;2.47;;
48423;SDS011;34232;42.502;26.014;2023-02-10T00:08:23;11.00;;;3.53;;
48423;SDS011;34232;42.502;26.014;2023-02-10T00:10:48;3.60;;;1.60;;
48423;SDS011;34232;42.502;26.014;2023-02-10T00:13:14;3.10;;;1.30;;
48423;SDS011;34232;42.502;26.014;2023-02-10T00:15:40;6.10;;;1.40;;
48423;SDS011;34232;42.502;26.014;2023-02-10T00:18:05;4.83;;;2.10;;
48423;SDS011;34232;42.502;26.014;2023-02-10T00:20:30;7.83;;;3.23;;
48423;SDS011;34232;42.502;26.014;2023-02-10T00:22:56;2.80;;;1.60;;
48423;SDS011;34232;42.502;26.014;2023-02-10T00:25:21;2.77;;;1.30;;
48423;SDS011;34232;42.502;26.014;2023-02-10T00:27:47;4.97;;;1.50;;
48423;SDS011;34232;42.502;26.014;2023-02-10T00:30:12;6.00;;;1.63;;
48423;SDS011;34232;42.502;26.014;2023-02-10T00:32:38;6.70;;;2.10;;
48423;SDS011;34232;42.502;26.014;2023-02-10T00:35:05;4.03;;;1.53;;
48423;SDS011;34232;42.502;26.014;2023-02-10T00:37:33;3.57;;;1.20;;
48423;SDS011;34232;42.502;26.014;2023-02-10T00:39:59;5.57;;;2.47;;
48423;SDS011;34232;42.502;26.014;2023-02-10T00:42:24;3.93;;;1.33;;
48423;SDS011;34232;42.502;26.014;2023-02-10T00:44:50;3.17;;;1.50;;
48423;SDS011;34232;42.502;26.014;2023-02-10T00:47:16;4.43;;;1.73;;
48423;SDS011;34232;42.502;26.014;2023-02-10T00:49:41;6.07;;;1.47;;
48423;SDS011;34232;42.502;26.014;2023-02-10T00:52:07;5.50;;;1.97;;
48423;SDS011;34232;42.502;26.014;2023-02-10T00:54:32;4.90;;;2.30;;
48423;SDS011;34232;42.502;26.014;2023-02-10T00:56:58;4.87;;;1.37;;
48423;SDS011;34232;42.502;26.014;2023-02-10T00:59:23;5.40;;;1.93;;
48423;SDS011;34232;42.502;26.014;2023-02-10T01:01:49;2.63;;;1.00;;
48423;SDS011;34232;42.502;26.014;2023-02-10T01:04:14;4.67;;;1.13;;
48423;SDS011;34232;42.502;26.014;2023-02-10T01:06:40;6.40;;;1.70;;
48423;SDS011;34232;42.502;26.014;2023-02-10T01:09:05;5.63;;;1.30;;
48423;SDS011;34232;42.502;26.014;2023-02-10T01:11:31;3.53;;;1.27;;
48423;SDS011;34232;42.502;26.014;2023-02-10T01:13:56;6.43;;;2.03;;
48423;SDS011;34232;42.502;26.014;2023-02-10T01:16:22;8.23;;;1.90;;
48423;SDS011;34232;42.502;26.014;2023-02-10T01:18:47;5.67;;;2.37;;
48423;SDS011;34232;42.502;26.014;2023-02-10T01:21:14;4.20;;;1.73;;
48423;SDS011;34232;42.502;26.014;2023-02-10T01:23:42;5.30;;;1.80;;
48423;SDS011;34232;42.502;26.014;2023-02-10T01:26:08;5.30;;;1.63;;
48423;SDS011;34232;42.502;26.014;2023-02-10T01:28:41;5.33;;;1.10;;
48423;SDS011;34232;42.502;26.014;2023-02-10T01:31:07;4.90;;;1.57;;
48423;SDS011;34232;42.502;26.014;2023-02-10T01:33:35;2.87;;;1.23;;
48423;SDS011;34232;42.502;26.014;2023-02-10T01:36:04;7.17;;;1.77;;
48423;SDS011;34232;42.502;26.014;2023-02-10T01:38:31;3.60;;;1.37;;
48423;SDS011;34232;42.502;26.014;2023-02-10T01:40:57;4.03;;;1.83;;
48423;SDS011;34232;42.502;26.014;2023-02-10T01:43:22;5.80;;;2.03;;
48423;SDS011;34232;42.502;26.014;2023-02-10T01:45:48;6.20;;;1.67;;
48423;SDS011;34232;42.502;26.014;2023-02-10T01:48:13;4.90;;;2.47;;
48423;SDS011;34232;42.502;26.014;2023-02-10T01:50:57;3.93;;;1.30;;
48423;SDS011;34232;42.502;26.014;2023-02-10T01:53:26;3.67;;;2.42;;
48423;SDS011;34232;42.502;26.014;2023-02-10T01:58:23;4.20;;;1.45;;
48423;SDS011;34232;42.502;26.014;2023-02-10T02:00:51;3.27;;;1.30;;
48423;SDS011;34232;42.502;26.014;2023-02-10T02:03:17;5.40;;;2.43;;
48423;SDS011;34232;42.502;26.014;2023-02-10T02:05:43;12.23;;;3.57;;
48423;SDS011;34232;42.502;26.014;2023-02-10T02:08:15;11.20;;;4.63;;
48423;SDS011;34232;42.502;26.014;2023-02-10T02:11:04;8.40;;;3.63;;
48423;SDS011;34232;42.502;26.014;2023-02-10T02:13:53;6.60;;;2.73;;
48423;SDS011;34232;42.502;26.014;2023-02-10T02:16:27;7.33;;;2.70;;
48423;SDS011;34232;42.502;26.014;2023-02-10T02:27:43;12.03;;;3.87;;
48423;SDS011;34232;42.502;26.014;2023-02-10T02:36:22;4.37;;;1.80;;
48423;SDS011;34232;42.502;26.014;2023-02-10T02:39:00;9.63;;;2.80;;
48423;SDS011;34232;42.502;26.014;2023-02-10T02:41:28;7.07;;;2.20;;
48423;SDS011;34232;42.502;26.014;2023-02-10T02:43:54;6.22;;;1.38;;
48423;SDS011;34232;42.502;26.014;2023-02-10T02:46:42;5.43;;;1.90;;
48423;SDS011;34232;42.502;26.014;2023-02-10T02:49:29;6.37;;;2.40;;
48423;SDS011;34232;42.502;26.014;2023-02-10T02:52:07;11.30;;;3.80;;
48423;SDS011;34232;42.502;26.014;2023-02-10T03:00:09;15.43;;;4.53;;
48423;SDS011;34232;42.502;26.014;2023-02-10T03:02:38;10.53;;;4.33;;
48423;SDS011;34232;42.502;26.014;2023-02-10T03:05:10;17.93;;;4.63;;
48423;SDS011;34232;42.502;26.014;2023-02-10T03:07:35;11.07;;;3.97;;
48423;SDS011;34232;42.502;26.014;2023-02-10T03:10:02;14.00;;;5.37;;
48423;SDS011;34232;42.502;26.014;2023-02-10T03:14:53;8.47;;;2.77;;
48423;SDS011;34232;42.502;26.014;2023-02-10T03:17:18;10.57;;;3.27;;
48423;SDS011;34232;42.502;26.014;2023-02-10T03:19:44;3.20;;;1.27;;
48423;SDS011;34232;42.502;26.014;2023-02-10T03:22:09;11.47;;;4.97;;
48423;SDS011;34232;42.502;26.014;2023-02-10T03:24:35;24.60;;;5.57;;
48423;SDS011;34232;42.502;26.014;2023-02-10T03:27:00;15.47;;;3.63;;
48423;SDS011;34232;42.502;26.014;2023-02-10T03:29:26;13.27;;;5.60;;
48423;SDS011;34232;42.502;26.014;2023-02-10T03:31:52;12.00;;;3.73;;
48423;SDS011;34232;42.502;26.014;2023-02-10T03:34:17;10.43;;;4.30;;
48423;SDS011;34232;42.502;26.014;2023-02-10T03:36:43;9.67;;;4.00;;
48423;SDS011;34232;42.502;26.014;2023-02-10T03:39:08;12.00;;;4.33;;
48423;SDS011;34232;42.502;26.014;2023-02-10T03:41:34;8.50;;;4.27;;
48423;SDS011;34232;42.502;26.014;2023-02-10T03:43:59;11.53;;;3.10;;
48423;SDS011;34232;42.502;26.014;2023-02-10T03:46:24;9.83;;;3.53;;
48423;SDS011;34232;42.502;26.014;2023-02-10T03:48:50;9.97;;;4.23;;
48423;SDS011;34232;42.502;26.014;2023-02-10T03:51:15;11.97;;;3.13;;
48423;SDS011;34232;42.502;26.014;2023-02-10T03:53:41;8.57;;;4.40;;
48423;SDS011;34232;42.502;26.014;2023-02-10T03:56:06;13.67;;;5.77;;
48423;SDS011;34232;42.502;26.014;2023-02-10T03:58:32;17.87;;;5.53;;
48423;SDS011;34232;42.502;26.014;2023-02-10T04:00:58;18.25;;;5.97;;
48423;SDS011;34232;42.502;26.014;2023-02-10T04:03:23;10.40;;;3.33;;
48423;SDS011;34232;42.502;26.014;2023-02-10T04:05:49;7.87;;;3.67;;
48423;SDS011;34232;42.502;26.014;2023-02-10T04:08:14;9.30;;;2.90;;
48423;SDS011;34232;42.502;26.014;2023-02-10T04:10:40;9.80;;;2.20;;
48423;SDS011;34232;42.502;26.014;2023-02-10T04:13:05;8.47;;;2.47;;
48423;SDS011;34232;42.502;26.014;2023-02-10T04:18:52;5.03;;;2.70;;
48423;SDS011;34232;42.502;26.014;2023-02-10T04:21:18;31.27;;;7.45;;
48423;SDS011;34232;42.502;26.014;2023-02-10T04:23:44;10.23;;;4.93;;
48423;SDS011;34232;42.502;26.014;2023-02-10T04:26:09;6.83;;;3.27;;
48423;SDS011;34232;42.502;26.014;2023-02-10T04:28:35;13.60;;;3.60;;
48423;SDS011;34232;42.502;26.014;2023-02-10T04:31:00;14.07;;;5.00;;
48423;SDS011;34232;42.502;26.014;2023-02-10T04:33:26;11.73;;;5.27;;
48423;SDS011;34232;42.502;26.014;2023-02-10T04:35:53;19.70;;;7.33;;
48423;SDS011;34232;42.502;26.014;2023-02-10T04:38:19;18.10;;;6.03;;
48423;SDS011;34232;42.502;26.014;2023-02-10T04:40:45;13.37;;;6.97;;
48423;SDS011;34232;42.502;26.014;2023-02-10T04:43:11;21.47;;;7.37;;
48423;SDS011;34232;42.502;26.014;2023-02-10T04:45:37;20.02;;;8.07;;
48423;SDS011;34232;42.502;26.014;2023-02-10T04:48:02;41.83;;;10.10;;
48423;SDS011;34232;42.502;26.014;2023-02-10T04:50:29;31.75;;;8.73;;
48423;SDS011;34232;42.502;26.014;2023-02-10T04:52:55;67.77;;;17.07;;
48423;SDS011;34232;42.502;26.014;2023-02-10T04:55:20;31.57;;;14.57;;
48423;SDS011;34232;42.502;26.014;2023-02-10T04:57:46;31.13;;;13.17;;
48423;SDS011;34232;42.502;26.014;2023-02-10T05:00:12;31.03;;;12.47;;
48423;SDS011;34232;42.502;26.014;2023-02-10T05:02:37;39.25;;;11.45;;
48423;SDS011;34232;42.502;26.014;2023-02-10T05:05:03;20.93;;;10.13;;
48423;SDS011;34232;42.502;26.014;2023-02-10T05:07:29;25.57;;;10.30;;
48423;SDS011;34232;42.502;26.014;2023-02-10T05:09:54;28.33;;;12.43;;
48423;SDS011;34232;42.502;26.014;2023-02-10T05:12:20;34.97;;;12.50;;
48423;SDS011;34232;42.502;26.014;2023-02-10T05:14:45;21.77;;;11.07;;
48423;SDS011;34232;42.502;26.014;2023-02-10T05:17:10;34.13;;;11.77;;
48423;SDS011;34232;42.502;26.014;2023-02-10T05:19:36;31.30;;;12.23;;
48423;SDS011;34232;42.502;26.014;2023-02-10T05:22:01;22.77;;;10.97;;
48423;SDS011;34232;42.502;26.014;2023-02-10T05:24:27;23.73;;;10.60;;
48423;SDS011;34232;42.502;26.014;2023-02-10T05:26:52;28.63;;;9.73;;
48423;SDS011;34232;42.502;26.014;2023-02-10T05:29:17;23.27;;;10.43;;
48423;SDS011;34232;42.502;26.014;2023-02-10T05:31:43;28.53;;;12.13;;
48423;SDS011;34232;42.502;26.014;2023-02-10T05:34:08;26.13;;;10.97;;
48423;SDS011;34232;42.502;26.014;2023-02-10T05:36:34;27.13;;;10.13;;
48423;SDS011;34232;42.502;26.014;2023-02-10T05:38:59;34.77;;;9.57;;
48423;SDS011;34232;42.502;26.014;2023-02-10T05:41:43;30.80;;;11.10;;
48423;SDS011;34232;42.502;26.014;2023-02-10T05:44:08;19.87;;;9.60;;
48423;SDS011;34232;42.502;26.014;2023-02-10T05:46:34;23.30;;;9.37;;
48423;SDS011;34232;42.502;26.014;2023-02-10T05:48:59;40.23;;;14.83;;
48423;SDS011;34232;42.502;26.014;2023-02-10T05:51:25;40.60;;;15.13;;
48423;SDS011;34232;42.502;26.014;2023-02-10T05:53:50;29.13;;;12.80;;
48423;SDS011;34232;42.502;26.014;2023-02-10T05:56:15;33.17;;;11.20;;
48423;SDS011;34232;42.502;26.014;2023-02-10T05:58:41;32.97;;;10.77;;
48423;SDS011;34232;42.502;26.014;2023-02-10T06:01:07;31.93;;;12.93;;
48423;SDS011;34232;42.502;26.014;2023-02-10T06:03:33;31.63;;;13.00;;
48423;SDS011;34232;42.502;26.014;2023-02-10T06:05:59;20.70;;;9.07;;
48423;SDS011;34232;42.502;26.014;2023-02-10T06:08:25;37.13;;;13.63;;
48423;SDS011;34232;42.502;26.014;2023-02-10T06:10:51;31.83;;;14.23;;
48423;SDS011;34232;42.502;26.014;2023-02-10T06:13:16;32.13;;;13.67;;
48423;SDS011;34232;42.502;26.014;2023-02-10T06:15:42;42.97;;;13.80;;
48423;SDS011;34232;42.502;26.014;2023-02-10T06:18:07;52.17;;;17.43;;
48423;SDS011;34232;42.502;26.014;2023-02-10T06:20:33;37.93;;;12.87;;
48423;SDS011;34232;42.502;26.014;2023-02-10T06:22:58;44.83;;;14.43;;
48423;SDS011;34232;42.502;26.014;2023-02-10T06:25:23;22.97;;;10.40;;
48423;SDS011;34232;42.502;26.014;2023-02-10T06:27:49;24.33;;;10.80;;
48423;SDS011;34232;42.502;26.014;2023-02-10T06:30:14;29.47;;;12.00;;
48423;SDS011;34232;42.502;26.014;2023-02-10T06:32:39;25.37;;;10.10;;
48423;SDS011;34232;42.502;26.014;2023-02-10T06:35:05;20.97;;;9.53;;
48423;SDS011;34232;42.502;26.014;2023-02-10T06:37:31;22.63;;;10.17;;
48423;SDS011;34232;42.502;26.014;2023-02-10T06:39:56;12.53;;;7.00;;
48423;SDS011;34232;42.502;26.014;2023-02-10T06:42:22;22.40;;;10.30;;
48423;SDS011;34232;42.502;26.014;2023-02-10T06:44:47;24.33;;;10.20;;
48423;SDS011;34232;42.502;26.014;2023-02-10T06:47:12;29.47;;;10.17;;
48423;SDS011;34232;42.502;26.014;2023-02-10T06:49:41;25.37;;;9.17;;
48423;SDS011;34232;42.502;26.014;2023-02-10T06:52:06;20.00;;;9.73;;
48423;SDS011;34232;42.502;26.014;2023-02-10T06:54:32;50.50;;;17.30;;
48423;SDS011;34232;42.502;26.014;2023-02-10T06:56:57;35.60;;;14.83;;
48423;SDS011;34232;42.502;26.014;2023-02-10T06:59:22;48.93;;;15.67;;
48423;SDS011;34232;42.502;26.014;2023-02-10T07:01:48;28.27;;;11.43;;
48423;SDS011;34232;42.502;26.014;2023-02-10T07:04:13;48.20;;;17.67;;
48423;SDS011;34232;42.502;26.014;2023-02-10T07:06:39;38.37;;;19.77;;
48423;SDS011;34232;42.502;26.014;2023-02-10T07:09:05;39.87;;;15.77;;
48423;SDS011;34232;42.502;26.014;2023-02-10T07:11:31;37.58;;;16.65;;
48423;SDS011;34232;42.502;26.014;2023-02-10T07:13:57;55.20;;;20.70;;
48423;SDS011;34232;42.502;26.014;2023-02-10T07:16:23;46.30;;;18.80;;
48423;SDS011;34232;42.502;26.014;2023-02-10T07:18:48;48.17;;;17.83;;
48423;SDS011;34232;42.502;26.014;2023-02-10T07:21:14;36.60;;;14.50;;
48423;SDS011;34232;42.502;26.014;2023-02-10T07:23:39;29.70;;;12.70;;
48423;SDS011;34232;42.502;26.014;2023-02-10T07:26:05;24.53;;;11.73;;
48423;SDS011;34232;42.502;26.014;2023-02-10T07:28:31;32.95;;;11.52;;
48423;SDS011;34232;42.502;26.014;2023-02-10T07:30:57;26.20;;;10.73;;
48423;SDS011;34232;42.502;26.014;2023-02-10T07:33:22;24.03;;;8.87;;
48423;SDS011;34232;42.502;26.014;2023-02-10T07:35:53;15.57;;;6.70;;
48423;SDS011;34232;42.502;26.014;2023-02-10T07:38:19;19.43;;;7.03;;
48423;SDS011;34232;42.502;26.014;2023-02-10T07:40:45;16.90;;;6.83;;
48423;SDS011;34232;42.502;26.014;2023-02-10T07:43:10;15.77;;;7.28;;
48423;SDS011;34232;42.502;26.014;2023-02-10T07:45:36;16.07;;;7.87;;
48423;SDS011;34232;42.502;26.014;2023-02-10T07:48:01;14.60;;;6.17;;
48423;SDS011;34232;42.502;26.014;2023-02-10T07:50:27;12.63;;;5.73;;
48423;SDS011;34232;42.502;26.014;2023-02-10T07:52:52;16.13;;;6.03;;
48423;SDS011;34232;42.502;26.014;2023-02-10T07:55:18;13.93;;;4.93;;
48423;SDS011;34232;42.502;26.014;2023-02-10T07:57:43;15.83;;;5.93;;
48423;SDS011;34232;42.502;26.014;2023-02-10T08:00:10;24.10;;;7.20;;
48423;SDS011;34232;42.502;26.014;2023-02-10T08:02:37;15.33;;;6.67;;
48423;SDS011;34232;42.502;26.014;2023-02-10T08:05:03;24.03;;;7.57;;
48423;SDS011;34232;42.502;26.014;2023-02-10T08:07:28;16.60;;;6.40;;
48423;SDS011;34232;42.502;26.014;2023-02-10T08:09:54;15.53;;;7.57;;
48423;SDS011;34232;42.502;26.014;2023-02-10T08:12:19;14.03;;;5.63;;
48423;SDS011;34232;42.502;26.014;2023-02-10T08:14:45;15.07;;;7.30;;
48423;SDS011;34232;42.502;26.014;2023-02-10T08:17:11;18.63;;;8.47;;
48423;SDS011;34232;42.502;26.014;2023-02-10T08:19:36;16.00;;;7.30;;
48423;SDS011;34232;42.502;26.014;2023-02-10T08:22:03;11.97;;;6.27;;
48423;SDS011;34232;42.502;26.014;2023-02-10T08:24:29;38.05;;;8.55;;
48423;SDS011;34232;42.502;26.014;2023-02-10T08:26:55;15.70;;;7.70;;
48423;SDS011;34232;42.502;26.014;2023-02-10T08:29:21;16.17;;;5.60;;
48423;SDS011;34232;42.502;26.014;2023-02-10T08:31:49;11.67;;;5.43;;
48423;SDS011;34232;42.502;26.014;2023-02-10T08:34:16;12.10;;;5.50;;
48423;SDS011;34232;42.502;26.014;2023-02-10T08:36:43;6.93;;;3.47;;
48423;SDS011;34232;42.502;26.014;2023-02-10T08:39:10;5.85;;;2.25;;
48423;SDS011;34232;42.502;26.014;2023-02-10T08:41:35;9.07;;;4.50;;
48423;SDS011;34232;42.502;26.014;2023-02-10T08:44:01;7.33;;;4.40;;
48423;SDS011;34232;42.502;26.014;2023-02-10T08:46:26;8.87;;;3.83;;
48423;SDS011;34232;42.502;26.014;2023-02-10T08:48:52;7.50;;;3.73;;
48423;SDS011;34232;42.502;26.014;2023-02-10T08:51:17;9.50;;;3.93;;
48423;SDS011;34232;42.502;26.014;2023-02-10T08:53:43;7.77;;;4.03;;
48423;SDS011;34232;42.502;26.014;2023-02-10T08:56:09;9.50;;;6.37;;
48423;SDS011;34232;42.502;26.014;2023-02-10T08:58:38;10.93;;;5.60;;
48423;SDS011;34232;42.502;26.014;2023-02-10T09:01:10;11.77;;;5.33;;
48423;SDS011;34232;42.502;26.014;2023-02-10T09:03:37;15.67;;;8.13;;
48423;SDS011;34232;42.502;26.014;2023-02-10T09:06:04;6.65;;;2.97;;
48423;SDS011;34232;42.502;26.014;2023-02-10T09:08:32;6.23;;;3.20;;
48423;SDS011;34232;42.502;26.014;2023-02-10T09:10:57;6.50;;;3.17;;
48423;SDS011;34232;42.502;26.014;2023-02-10T09:13:23;15.20;;;5.37;;
48423;SDS011;34232;42.502;26.014;2023-02-10T09:15:48;15.27;;;3.97;;
48423;SDS011;34232;42.502;26.014;2023-02-10T09:18:14;6.70;;;1.97;;
48423;SDS011;34232;42.502;26.014;2023-02-10T09:23:06;10.80;;;4.50;;
48423;SDS011;34232;42.502;26.014;2023-02-10T09:25:32;10.83;;;5.07;;
48423;SDS011;34232;42.502;26.014;2023-02-10T09:27:57;18.90;;;3.50;;
48423;SDS011;34232;42.502;26.014;2023-02-10T09:30:26;7.27;;;2.00;;
48423;SDS011;34232;42.502;26.014;2023-02-10T09:32:52;4.40;;;1.33;;
48423;SDS011;34232;42.502;26.014;2023-02-10T09:35:18;5.95;;;1.10;;
48423;SDS011;34232;42.502;26.014;2023-02-10T09:37:44;2.27;;;1.10;;
48423;SDS011;34232;42.502;26.014;2023-02-10T09:40:13;6.40;;;2.47;;
48423;SDS011;34232;42.502;26.014;2023-02-10T09:42:57;5.13;;;2.03;;
48423;SDS011;34232;42.502;26.014;2023-02-10T09:45:34;2.50;;;1.57;;
48423;SDS011;34232;42.502;26.014;2023-02-10T09:53:45;6.35;;;2.83;;
48423;SDS011;34232;42.502;26.014;2023-02-10T09:56:17;11.83;;;2.00;;
48423;SDS011;34232;42.502;26.014;2023-02-10T09:58:46;10.80;;;3.03;;
48423;SDS011;34232;42.502;26.014;2023-02-10T10:03:59;22.37;;;12.70;;
48423;SDS011;34232;42.502;26.014;2023-02-10T10:06:34;5.97;;;3.53;;
48423;SDS011;34232;42.502;26.014;2023-02-10T10:14:17;1.27;;;0.37;;
48423;SDS011;34232;42.502;26.014;2023-02-10T10:19:55;3.73;;;1.17;;
48423;SDS011;34232;42.502;26.014;2023-02-10T10:28:06;2.80;;;1.00;;
48423;SDS011;34232;42.502;26.014;2023-02-10T10:30:41;25.60;;;7.20;;
48423;SDS011;34232;42.502;26.014;2023-02-10T10:33:19;9.30;;;2.90;;
48423;SDS011;34232;42.502;26.014;2023-02-10T10:35:46;23.23;;;2.87;;
48423;SDS011;34232;42.502;26.014;2023-02-10T10:38:16;11.23;;;1.77;;
48423;SDS011;34232;42.502;26.014;2023-02-10T10:40:46;2.73;;;1.03;;
48423;SDS011;34232;42.502;26.014;2023-02-10T10:43:24;5.70;;;2.63;;
48423;SDS011;34232;42.502;26.014;2023-02-10T10:46:09;8.20;;;1.93;;
48423;SDS011;34232;42.502;26.014;2023-02-10T10:48:56;3.53;;;1.63;;
48423;SDS011;34232;42.502;26.014;2023-02-10T10:51:22;8.68;;;3.17;;
48423;SDS011;34232;42.502;26.014;2023-02-10T10:53:57;2.37;;;1.30;;
48423;SDS011;34232;42.502;26.014;2023-02-10T10:59:16;3.77;;;1.27;;
48423;SDS011;34232;42.502;26.014;2023-02-10T11:01:48;3.10;;;1.33;;
48423;SDS011;34232;42.502;26.014;2023-02-10T11:04:21;4.17;;;1.50;;
48423;SDS011;34232;42.502;26.014;2023-02-10T11:06:52;2.42;;;1.48;;
48423;SDS011;34232;42.502;26.014;2023-02-10T11:09:30;4.57;;;1.00;;
48423;SDS011;34232;42.502;26.014;2023-02-10T11:12:06;5.77;;;1.80;;
48423;SDS011;34232;42.502;26.014;2023-02-10T11:14:45;6.03;;;1.23;;
48423;SDS011;34232;42.502;26.014;2023-02-10T11:19:57;1.43;;;0.63;;
48423;SDS011;34232;42.502;26.014;2023-02-10T11:22:25;2.67;;;0.73;;
48423;SDS011;34232;42.502;26.014;2023-02-10T11:24:52;8.40;;;1.48;;
48423;SDS011;34232;42.502;26.014;2023-02-10T11:27:20;2.77;;;1.20;;
48423;SDS011;34232;42.502;26.014;2023-02-10T11:29:47;4.10;;;1.13;;
48423;SDS011;34232;42.502;26.014;2023-02-10T11:32:22;3.07;;;1.10;;
48423;SDS011;34232;42.502;26.014;2023-02-10T11:34:50;3.20;;;1.10;;
48423;SDS011;34232;42.502;26.014;2023-02-10T11:37:21;2.30;;;0.93;;
48423;SDS011;34232;42.502;26.014;2023-02-10T11:39:51;4.97;;;0.73;;
48423;SDS011;34232;42.502;26.014;2023-02-10T11:42:34;3.47;;;0.83;;
48423;SDS011;34232;42.502;26.014;2023-02-10T11:47:28;1.30;;;1.10;;
48423;SDS011;34232;42.502;26.014;2023-02-10T11:49:55;1.50;;;1.30;;
48423;SDS011;34232;42.502;26.014;2023-02-10T11:52:21;4.13;;;1.63;;
48423;SDS011;34232;42.502;26.014;2023-02-10T11:54:49;5.43;;;1.17;;
48423;SDS011;34232;42.502;26.014;2023-02-10T11:57:26;2.17;;;0.67;;
48423;SDS011;34232;42.502;26.014;2023-02-10T12:08:40;2.90;;;0.77;;
48423;SDS011;34232;42.502;26.014;2023-02-10T12:11:19;3.65;;;1.15;;
48423;SDS011;34232;42.502;26.014;2023-02-10T12:14:02;1.37;;;0.50;;
48423;SDS011;34232;42.502;26.014;2023-02-10T12:16:55;0.87;;;0.73;;
48423;SDS011;34232;42.502;26.014;2023-02-10T12:19:39;3.53;;;0.80;;
48423;SDS011;34232;42.502;26.014;2023-02-10T12:22:22;7.40;;;1.10;;
48423;SDS011;34232;42.502;26.014;2023-02-10T12:25:07;2.70;;;0.60;;
48423;SDS011;34232;42.502;26.014;2023-02-10T12:39:29;2.43;;;0.70;;
48423;SDS011;34232;42.502;26.014;2023-02-10T12:47:09;6.22;;;1.40;;
48423;SDS011;34232;42.502;26.014;2023-02-10T12:49:56;2.25;;;0.82;;
48423;SDS011;34232;42.502;26.014;2023-02-10T12:52:26;2.27;;;1.23;;
48423;SDS011;34232;42.502;26.014;2023-02-10T13:00:39;4.50;;;1.23;;
48423;SDS011;34232;42.502;26.014;2023-02-10T13:03:11;4.10;;;1.17;;
48423;SDS011;34232;42.502;26.014;2023-02-10T13:05:45;4.07;;;1.17;;
48423;SDS011;34232;42.502;26.014;2023-02-10T13:08:18;4.10;;;1.17;;
48423;SDS011;34232;42.502;26.014;2023-02-10T13:10:54;2.70;;;1.00;;
48423;SDS011;34232;42.502;26.014;2023-02-10T13:13:29;7.57;;;1.37;;
48423;SDS011;34232;42.502;26.014;2023-02-10T13:19:01;2.30;;;1.50;;
48423;SDS011;34232;42.502;26.014;2023-02-10T13:21:45;2.13;;;0.70;;
48423;SDS011;34232;42.502;26.014;2023-02-10T13:24:19;1.97;;;1.03;;
48423;SDS011;34232;42.502;26.014;2023-02-10T13:29:41;1.17;;;0.70;;
48423;SDS011;34232;42.502;26.014;2023-02-10T13:35:11;5.40;;;1.70;;
48423;SDS011;34232;42.502;26.014;2023-02-10T13:37:42;13.60;;;1.90;;
48423;SDS011;34232;42.502;26.014;2023-02-10T13:40:17;12.33;;;3.17;;
48423;SDS011;34232;42.502;26.014;2023-02-10T13:42:47;2.03;;;1.00;;
48423;SDS011;34232;42.502;26.014;2023-02-10T13:45:26;7.90;;;1.55;;
48423;SDS011;34232;42.502;26.014;2023-02-10T13:47:54;10.00;;;2.30;;
48423;SDS011;34232;42.502;26.014;2023-02-10T13:50:27;10.03;;;1.93;;
48423;SDS011;34232;42.502;26.014;2023-02-10T13:52:57;5.93;;;2.37;;
48423;SDS011;34232;42.502;26.014;2023-02-10T14:00:28;4.20;;;2.43;;
48423;SDS011;34232;42.502;26.014;2023-02-10T14:02:59;3.90;;;2.03;;
48423;SDS011;34232;42.502;26.014;2023-02-10T14:08:38;3.42;;;1.50;;
48423;SDS011;34232;42.502;26.014;2023-02-10T14:13:44;3.30;;;0.80;;
48423;SDS011;34232;42.502;26.014;2023-02-10T14:16:41;4.77;;;1.67;;
48423;SDS011;34232;42.502;26.014;2023-02-10T14:21:53;14.67;;;4.20;;
48423;SDS011;34232;42.502;26.014;2023-02-10T14:24:23;6.15;;;2.58;;
48423;SDS011;34232;42.502;26.014;2023-02-10T14:26:51;5.20;;;1.90;;
48423;SDS011;34232;42.502;26.014;2023-02-10T14:29:18;28.92;;;5.43;;
48423;SDS011;34232;42.502;26.014;2023-02-10T14:31:45;6.23;;;2.97;;
48423;SDS011;34232;42.502;26.014;2023-02-10T14:34:32;13.63;;;2.37;;
48423;SDS011;34232;42.502;26.014;2023-02-10T14:39:28;3.37;;;1.10;;
48423;SDS011;34232;42.502;26.014;2023-02-10T14:41:58;3.67;;;1.30;;
48423;SDS011;34232;42.502;26.014;2023-02-10T14:47:05;6.13;;;1.80;;
48423;SDS011;34232;42.502;26.014;2023-02-10T14:49:32;6.82;;;2.88;;
48423;SDS011;34232;42.502;26.014;2023-02-10T14:52:01;3.17;;;1.40;;
48423;SDS011;34232;42.502;26.014;2023-02-10T14:54:28;6.78;;;2.20;;
48423;SDS011;34232;42.502;26.014;2023-02-10T14:56:56;2.65;;;1.60;;
48423;SDS011;34232;42.502;26.014;2023-02-10T14:59:24;6.10;;;1.30;;
48423;SDS011;34232;42.502;26.014;2023-02-10T15:01:52;6.57;;;2.80;;
48423;SDS011;34232;42.502;26.014;2023-02-10T15:04:19;20.38;;;3.30;;
48423;SDS011;34232;42.502;26.014;2023-02-10T15:06:49;6.60;;;1.87;;
48423;SDS011;34232;42.502;26.014;2023-02-10T15:09:19;18.13;;;3.70;;
48423;SDS011;34232;42.502;26.014;2023-02-10T15:11:49;8.63;;;3.43;;
48423;SDS011;34232;42.502;26.014;2023-02-10T15:17:17;9.40;;;6.13;;
48423;SDS011;34232;42.502;26.014;2023-02-10T15:22:30;14.93;;;4.60;;
48423;SDS011;34232;42.502;26.014;2023-02-10T15:24:57;30.15;;;9.48;;
48423;SDS011;34232;42.502;26.014;2023-02-10T15:27:22;13.63;;;6.77;;
48423;SDS011;34232;42.502;26.014;2023-02-10T15:29:48;18.87;;;8.87;;
48423;SDS011;34232;42.502;26.014;2023-02-10T15:32:15;27.27;;;14.50;;
48423;SDS011;34232;42.502;26.014;2023-02-10T15:34:46;23.63;;;7.70;;
48423;SDS011;34232;42.502;26.014;2023-02-10T15:37:18;23.30;;;9.70;;
48423;SDS011;34232;42.502;26.014;2023-02-10T15:39:56;20.67;;;7.57;;
48423;SDS011;34232;42.502;26.014;2023-02-10T15:42:22;32.67;;;10.87;;
48423;SDS011;34232;42.502;26.014;2023-02-10T15:44:59;46.67;;;13.33;;
48423;SDS011;34232;42.502;26.014;2023-02-10T15:47:43;31.00;;;11.70;;
48423;SDS011;34232;42.502;26.014;2023-02-10T15:50:15;45.88;;;17.10;;
48423;SDS011;34232;42.502;26.014;2023-02-10T15:52:45;38.33;;;15.90;;
48423;SDS011;34232;42.502;26.014;2023-02-10T15:57:41;46.57;;;16.57;;
48423;SDS011;34232;42.502;26.014;2023-02-10T16:03:02;35.37;;;12.97;;
48423;SDS011;34232;42.502;26.014;2023-02-10T16:05:28;35.50;;;13.20;;
48423;SDS011;34232;42.502;26.014;2023-02-10T16:07:55;33.30;;;17.20;;
48423;SDS011;34232;42.502;26.014;2023-02-10T16:10:26;34.60;;;17.37;;
48423;SDS011;34232;42.502;26.014;2023-02-10T16:12:52;52.33;;;20.60;;
48423;SDS011;34232;42.502;26.014;2023-02-10T16:15:19;51.30;;;23.83;;
48423;SDS011;34232;42.502;26.014;2023-02-10T16:17:48;49.57;;;24.90;;
48423;SDS011;34232;42.502;26.014;2023-02-10T16:20:18;52.83;;;24.93;;
48423;SDS011;34232;42.502;26.014;2023-02-10T16:22:47;25.40;;;12.37;;
48423;SDS011;34232;42.502;26.014;2023-02-10T16:25:16;22.60;;;7.50;;
48423;SDS011;34232;42.502;26.014;2023-02-10T16:27:42;14.27;;;4.87;;
48423;SDS011;34232;42.502;26.014;2023-02-10T16:30:25;8.20;;;4.05;;
48423;SDS011;34232;42.502;26.014;2023-02-10T16:32:52;16.40;;;5.83;;
48423;SDS011;34232;42.502;26.014;2023-02-10T16:35:19;34.20;;;14.37;;
48423;SDS011;34232;42.502;26.014;2023-02-10T16:37:45;51.87;;;15.20;;
48423;SDS011;34232;42.502;26.014;2023-02-10T16:40:33;22.63;;;8.17;;
48423;SDS011;34232;42.502;26.014;2023-02-10T16:42:57;16.87;;;5.80;;
48423;SDS011;34232;42.502;26.014;2023-02-10T16:45:24;18.20;;;7.40;;
48423;SDS011;34232;42.502;26.014;2023-02-10T16:47:51;39.90;;;15.87;;